sensor_id;sensor_type;location;lat;lon;timestamp;pressure;altitude;pressure_sealevel;temperature;humidity
11912;BME280;6016;41.928;25.556;2023-09-12T00:00:21;99232.38;;;20.56;47.92
11912;BME280;6016;41.928;25.556;2023-09-12T00:02:50;99237.53;;;20.64;47.87
11912;BME280;6016;41.928;25.556;2023-09-12T00:05:16;99235.06;;;20.62;46.70
11912;BME280;6016;41.928;25.556;2023-09-12T00:07:42;99239.56;;;20.55;46.93
11912;BME280;6016;41.928;25.556;2023-09-12T00:10:09;99240.56;;;20.47;48.16
11912;BME280;6016;41.928;25.556;2023-09-12T00:12:36;99243.88;;;20.49;46.94
11912;BME280;6016;41.928;25.556;2023-09-12T00:15:04;99237.72;;;20.49;47.89
11912;BME280;6016;41.928;25.556;2023-09-12T00:17:31;99238.94;;;20.53;47.61
11912;BME280;6016;41.928;25.556;2023-09-12T00:19:59;99184.63;;;20.10;48.25
11912;BME280;6016;41.928;25.556;2023-09-12T00:22:26;99243.06;;;20.49;48.28
11912;BME280;6016;41.928;25.556;2023-09-12T00:24:53;99249.47;;;20.48;47.16
11912;BME280;6016;41.928;25.556;2023-09-12T00:27:19;99196.56;;;20.15;47.12
11912;BME280;6016;41.928;25.556;2023-09-12T00:29:46;99172.66;;;19.78;48.08
11912;BME280;6016;41.928;25.556;2023-09-12T00:32:13;99256.19;;;20.30;48.41
11912;BME280;6016;41.928;25.556;2023-09-12T00:34:40;99242.78;;;20.30;48.29
11912;BME280;6016;41.928;25.556;2023-09-12T00:37:08;99257.38;;;20.28;47.65
11912;BME280;6016;41.928;25.556;2023-09-12T00:39:35;99014.09;;;18.78;47.33
11912;BME280;6016;41.928;25.556;2023-09-12T00:42:02;99246.41;;;20.09;47.34
11912;BME280;6016;41.928;25.556;2023-09-12T00:44:30;99260.88;;;20.21;48.53
11912;BME280;6016;41.928;25.556;2023-09-12T00:46:57;99229.13;;;19.83;48.15
11912;BME280;6016;41.928;25.556;2023-09-12T00:49:25;99199.84;;;19.75;49.00
11912;BME280;6016;41.928;25.556;2023-09-12T00:51:52;99195.16;;;19.83;49.04
11912;BME280;6016;41.928;25.556;2023-09-12T00:54:20;99178.25;;;19.76;48.77
11912;BME280;6016;41.928;25.556;2023-09-12T00:56:47;99249.75;;;20.24;48.77
11912;BME280;6016;41.928;25.556;2023-09-12T00:59:16;99252.44;;;20.24;48.29
11912;BME280;6016;41.928;25.556;2023-09-12T01:01:44;99251.94;;;20.07;48.83
11912;BME280;6016;41.928;25.556;2023-09-12T01:04:11;99249.28;;;20.14;47.08
11912;BME280;6016;41.928;25.556;2023-09-12T01:06:38;98997.78;;;18.45;48.60
11912;BME280;6016;41.928;25.556;2023-09-12T01:09:05;99166.56;;;19.49;49.07
11912;BME280;6016;41.928;25.556;2023-09-12T01:11:34;99202.06;;;19.71;49.30
11912;BME280;6016;41.928;25.556;2023-09-12T01:14:01;99249.44;;;19.99;49.21
11912;BME280;6016;41.928;25.556;2023-09-12T01:16:28;99179.47;;;19.45;48.83
11912;BME280;6016;41.928;25.556;2023-09-12T01:18:55;99250.47;;;19.98;48.35
11912;BME280;6016;41.928;25.556;2023-09-12T01:22:01;99248.41;;;20.00;47.90
11912;BME280;6016;41.928;25.556;2023-09-12T01:24:58;99283.75;;;19.89;47.55
11912;BME280;6016;41.928;25.556;2023-09-12T01:27:33;99256.31;;;19.80;49.53
11912;BME280;6016;41.928;25.556;2023-09-12T01:30:03;99162.63;;;19.16;49.55
11912;BME280;6016;41.928;25.556;2023-09-12T01:32:31;99206.53;;;19.57;49.82
11912;BME280;6016;41.928;25.556;2023-09-12T01:34:58;99246.84;;;19.84;48.97
11912;BME280;6016;41.928;25.556;2023-09-12T01:37:25;99265.06;;;19.95;49.24
11912;BME280;6016;41.928;25.556;2023-09-12T01:39:52;99218.84;;;19.51;49.32
11912;BME280;6016;41.928;25.556;2023-09-12T01:42:21;99266.72;;;19.96;49.03
11912;BME280;6016;41.928;25.556;2023-09-12T01:44:54;99266.72;;;19.96;48.97
11912;BME280;6016;41.928;25.556;2023-09-12T01:47:22;99262.78;;;19.92;48.89
11912;BME280;6016;41.928;25.556;2023-09-12T01:49:52;99176.50;;;19.26;49.68
11912;BME280;6016;41.928;25.556;2023-09-12T01:52:21;99217.25;;;19.57;49.30
11912;BME280;6016;41.928;25.556;2023-09-12T01:54:49;99271.63;;;19.93;49.36
11912;BME280;6016;41.928;25.556;2023-09-12T01:57:17;99206.28;;;19.52;49.27
11912;BME280;6016;41.928;25.556;2023-09-12T01:59:46;99271.91;;;19.98;49.27
11912;BME280;6016;41.928;25.556;2023-09-12T02:02:14;99276.41;;;19.98;48.85
11912;BME280;6016;41.928;25.556;2023-09-12T02:04:41;99265.25;;;19.94;49.34
11912;BME280;6016;41.928;25.556;2023-09-12T02:07:08;99272.09;;;19.96;49.53
11912;BME280;6016;41.928;25.556;2023-09-12T02:09:34;99172.59;;;19.29;49.26
11912;BME280;6016;41.928;25.556;2023-09-12T02:12:01;99128.31;;;18.98;49.11
11912;BME280;6016;41.928;25.556;2023-09-12T02:14:28;99274.34;;;20.00;48.91
11912;BME280;6016;41.928;25.556;2023-09-12T02:16:55;99264.66;;;19.99;49.37
11912;BME280;6016;41.928;25.556;2023-09-12T02:19:23;99272.25;;;19.95;49.37
11912;BME280;6016;41.928;25.556;2023-09-12T02:21:50;99237.75;;;19.78;49.60
11912;BME280;6016;41.928;25.556;2023-09-12T02:24:17;99259.50;;;19.97;49.36
11912;BME280;6016;41.928;25.556;2023-09-12T02:26:46;99194.78;;;19.51;49.10
11912;BME280;6016;41.928;25.556;2023-09-12T02:29:13;98993.53;;;18.22;49.63
11912;BME280;6016;41.928;25.556;2023-09-12T02:31:40;99173.19;;;19.24;49.46
11912;BME280;6016;41.928;25.556;2023-09-12T02:34:07;99218.25;;;19.56;49.39
11912;BME280;6016;41.928;25.556;2023-09-12T02:36:35;99267.06;;;19.87;48.92
11912;BME280;6016;41.928;25.556;2023-09-12T02:39:02;99259.53;;;19.68;49.78
11912;BME280;6016;41.928;25.556;2023-09-12T02:41:29;99154.75;;;19.08;50.17
11912;BME280;6016;41.928;25.556;2023-09-12T02:43:56;99224.19;;;19.51;49.79
11912;BME280;6016;41.928;25.556;2023-09-12T02:46:23;99271.53;;;19.79;49.86
11912;BME280;6016;41.928;25.556;2023-09-12T02:48:50;99271.34;;;19.81;49.75
11912;BME280;6016;41.928;25.556;2023-09-12T02:51:16;99191.75;;;19.33;49.83
11912;BME280;6016;41.928;25.556;2023-09-12T02:53:44;99265.94;;;19.74;49.89
11912;BME280;6016;41.928;25.556;2023-09-12T02:56:12;99268.81;;;19.73;50.02
11912;BME280;6016;41.928;25.556;2023-09-12T02:58:39;99275.63;;;19.75;49.90
11912;BME280;6016;41.928;25.556;2023-09-12T03:01:05;99277.63;;;19.66;49.79
11912;BME280;6016;41.928;25.556;2023-09-12T03:03:32;99244.53;;;19.46;50.07
11912;BME280;6016;41.928;25.556;2023-09-12T03:06:00;99247.44;;;19.51;49.99
11912;BME280;6016;41.928;25.556;2023-09-12T03:08:28;99143.00;;;18.80;50.06
11912;BME280;6016;41.928;25.556;2023-09-12T03:10:57;99166.09;;;18.88;49.90
11912;BME280;6016;41.928;25.556;2023-09-12T03:13:25;99218.59;;;19.18;49.68
11912;BME280;6016;41.928;25.556;2023-09-12T03:15:52;99259.16;;;19.21;50.50
11912;BME280;6016;41.928;25.556;2023-09-12T03:18:19;99278.06;;;19.42;50.90
11912;BME280;6016;41.928;25.556;2023-09-12T03:20:46;99276.19;;;19.42;50.33
11912;BME280;6016;41.928;25.556;2023-09-12T03:23:13;99275.56;;;19.40;50.51
11912;BME280;6016;41.928;25.556;2023-09-12T03:25:39;99261.75;;;19.15;49.92
11912;BME280;6016;41.928;25.556;2023-09-12T03:28:08;99258.25;;;19.14;51.61
11912;BME280;6016;41.928;25.556;2023-09-12T03:30:36;99271.56;;;19.29;51.60
11912;BME280;6016;41.928;25.556;2023-09-12T03:33:04;99245.78;;;19.00;50.61
11912;BME280;6016;41.928;25.556;2023-09-12T03:35:32;99282.00;;;19.24;50.80
11912;BME280;6016;41.928;25.556;2023-09-12T03:37:59;99282.56;;;19.19;50.23
11912;BME280;6016;41.928;25.556;2023-09-12T03:40:28;99271.56;;;19.07;51.59
11912;BME280;6016;41.928;25.556;2023-09-12T03:42:55;99270.09;;;19.05;51.93
11912;BME280;6016;41.928;25.556;2023-09-12T03:45:23;99281.38;;;19.22;51.73
11912;BME280;6016;41.928;25.556;2023-09-12T03:47:50;99287.34;;;19.24;51.73
11912;BME280;6016;41.928;25.556;2023-09-12T03:50:17;99267.09;;;19.15;51.35
11912;BME280;6016;41.928;25.556;2023-09-12T03:52:44;99289.00;;;19.25;51.23
11912;BME280;6016;41.928;25.556;2023-09-12T03:55:11;99286.66;;;19.15;52.15
11912;BME280;6016;41.928;25.556;2023-09-12T03:57:37;99263.97;;;18.89;51.67
11912;BME280;6016;41.928;25.556;2023-09-12T04:00:05;99292.56;;;19.10;51.29
11912;BME280;6016;41.928;25.556;2023-09-12T04:02:34;99295.53;;;19.16;52.08
11912;BME280;6016;41.928;25.556;2023-09-12T04:05:01;99188.28;;;18.45;52.12
11912;BME280;6016;41.928;25.556;2023-09-12T04:07:28;99301.69;;;19.16;52.31
11912;BME280;6016;41.928;25.556;2023-09-12T04:09:55;99304.63;;;19.21;52.33
11912;BME280;6016;41.928;25.556;2023-09-12T04:12:21;99301.34;;;19.26;52.23
11912;BME280;6016;41.928;25.556;2023-09-12T04:14:49;99294.41;;;19.32;52.01
11912;BME280;6016;41.928;25.556;2023-09-12T04:17:17;99271.50;;;19.22;52.28
11912;BME280;6016;41.928;25.556;2023-09-12T04:19:45;99297.16;;;19.38;52.28
11912;BME280;6016;41.928;25.556;2023-09-12T04:22:12;99294.28;;;19.40;51.91
11912;BME280;6016;41.928;25.556;2023-09-12T04:24:38;99215.06;;;18.95;51.79
11912;BME280;6016;41.928;25.556;2023-09-12T04:27:05;99295.53;;;19.44;51.62
11912;BME280;6016;41.928;25.556;2023-09-12T04:29:32;99290.41;;;19.43;51.83
11912;BME280;6016;41.928;25.556;2023-09-12T04:32:01;99286.31;;;19.47;51.42
11912;BME280;6016;41.928;25.556;2023-09-12T04:34:28;99252.41;;;19.25;51.67
11912;BME280;6016;41.928;25.556;2023-09-12T04:36:57;99291.28;;;19.50;51.43
11912;BME280;6016;41.928;25.556;2023-09-12T04:39:24;99293.78;;;19.51;51.40
11912;BME280;6016;41.928;25.556;2023-09-12T04:41:51;99305.09;;;19.53;51.17
11912;BME280;6016;41.928;25.556;2023-09-12T04:44:17;99257.47;;;19.20;51.50
11912;BME280;6016;41.928;25.556;2023-09-12T04:46:44;99300.09;;;19.44;51.58
11912;BME280;6016;41.928;25.556;2023-09-12T04:49:11;99308.13;;;19.44;51.51
11912;BME280;6016;41.928;25.556;2023-09-12T04:51:38;99305.44;;;19.44;51.50
11912;BME280;6016;41.928;25.556;2023-09-12T04:54:06;99303.97;;;19.41;51.75
11912;BME280;6016;41.928;25.556;2023-09-12T04:56:33;99250.28;;;18.99;52.13
11912;BME280;6016;41.928;25.556;2023-09-12T04:59:00;99322.88;;;19.39;52.34
11912;BME280;6016;41.928;25.556;2023-09-12T05:01:26;99324.56;;;19.40;52.50
11912;BME280;6016;41.928;25.556;2023-09-12T05:03:53;99317.78;;;19.45;52.62
11912;BME280;6016;41.928;25.556;2023-09-12T05:06:20;99314.53;;;19.49;52.32
11912;BME280;6016;41.928;25.556;2023-09-12T05:08:47;99311.28;;;19.54;52.46
11912;BME280;6016;41.928;25.556;2023-09-12T05:11:15;99308.84;;;19.59;52.27
11912;BME280;6016;41.928;25.556;2023-09-12T05:13:42;99308.47;;;19.62;52.31
11912;BME280;6016;41.928;25.556;2023-09-12T05:16:08;99280.72;;;19.42;52.42
11912;BME280;6016;41.928;25.556;2023-09-12T05:18:35;99232.16;;;19.16;52.70
11912;BME280;6016;41.928;25.556;2023-09-12T05:21:02;99306.03;;;19.67;52.32
11912;BME280;6016;41.928;25.556;2023-09-12T05:23:29;99235.28;;;19.20;52.71
11912;BME280;6016;41.928;25.556;2023-09-12T05:25:56;99310.56;;;19.67;52.40
11912;BME280;6016;41.928;25.556;2023-09-12T05:28:24;99147.00;;;18.69;52.61
11912;BME280;6016;41.928;25.556;2023-09-12T05:30:51;99310.22;;;19.77;52.10
11912;BME280;6016;41.928;25.556;2023-09-12T05:33:17;99301.94;;;19.72;52.62
11912;BME280;6016;41.928;25.556;2023-09-12T05:35:44;99263.09;;;19.47;52.84
11912;BME280;6016;41.928;25.556;2023-09-12T05:38:11;99267.41;;;19.48;52.79
11912;BME280;6016;41.928;25.556;2023-09-12T05:40:38;99313.59;;;19.86;52.76
11912;BME280;6016;41.928;25.556;2023-09-12T05:43:05;99295.38;;;19.74;52.89
11912;BME280;6016;41.928;25.556;2023-09-12T05:45:33;99222.81;;;19.34;52.71
11912;BME280;6016;41.928;25.556;2023-09-12T05:48:00;99323.19;;;20.02;52.78
11912;BME280;6016;41.928;25.556;2023-09-12T05:50:28;99215.28;;;19.44;52.69
11912;BME280;6016;41.928;25.556;2023-09-12T05:52:55;99319.19;;;20.19;52.70
11912;BME280;6016;41.928;25.556;2023-09-12T05:55:22;99313.56;;;20.14;52.54
11912;BME280;6016;41.928;25.556;2023-09-12T05:57:49;99318.41;;;20.32;52.31
11912;BME280;6016;41.928;25.556;2023-09-12T06:00:18;99318.88;;;20.43;52.45
11912;BME280;6016;41.928;25.556;2023-09-12T06:02:46;99282.31;;;20.21;52.56
11912;BME280;6016;41.928;25.556;2023-09-12T06:05:13;99327.38;;;20.53;52.75
11912;BME280;6016;41.928;25.556;2023-09-12T06:07:40;99328.84;;;20.56;53.51
11912;BME280;6016;41.928;25.556;2023-09-12T06:10:08;99315.84;;;20.59;53.28
11912;BME280;6016;41.928;25.556;2023-09-12T06:12:35;99322.50;;;20.63;53.53
11912;BME280;6016;41.928;25.556;2023-09-12T06:15:02;99325.97;;;20.64;53.99
11912;BME280;6016;41.928;25.556;2023-09-12T06:17:29;99335.28;;;20.68;53.62
11912;BME280;6016;41.928;25.556;2023-09-12T06:19:58;99335.94;;;20.77;53.39
11912;BME280;6016;41.928;25.556;2023-09-12T06:22:25;99324.44;;;20.83;54.29
11912;BME280;6016;41.928;25.556;2023-09-12T06:24:53;99330.22;;;20.87;55.39
11912;BME280;6016;41.928;25.556;2023-09-12T06:27:20;99330.22;;;20.87;54.06
11912;BME280;6016;41.928;25.556;2023-09-12T06:29:47;99222.34;;;20.22;55.36
11912;BME280;6016;41.928;25.556;2023-09-12T06:32:15;99322.00;;;20.88;55.51
11912;BME280;6016;41.928;25.556;2023-09-12T06:34:41;99337.09;;;21.10;55.72
11912;BME280;6016;41.928;25.556;2023-09-12T06:37:10;99336.50;;;21.14;56.32
11912;BME280;6016;41.928;25.556;2023-09-12T06:39:38;99343.28;;;21.17;55.48
11912;BME280;6016;41.928;25.556;2023-09-12T06:42:05;99345.78;;;21.18;54.21
11912;BME280;6016;41.928;25.556;2023-09-12T06:44:32;99342.50;;;21.23;53.66
11912;BME280;6016;41.928;25.556;2023-09-12T06:46:59;99344.75;;;21.26;53.55
11912;BME280;6016;41.928;25.556;2023-09-12T06:49:25;99317.09;;;21.19;53.26
11912;BME280;6016;41.928;25.556;2023-09-12T06:51:52;99026.59;;;19.42;51.96
11912;BME280;6016;41.928;25.556;2023-09-12T06:54:20;99345.00;;;21.65;51.64
11912;BME280;6016;41.928;25.556;2023-09-12T06:56:47;99342.75;;;21.96;49.22
11912;BME280;6016;41.928;25.556;2023-09-12T06:59:14;99351.41;;;22.11;49.26
11912;BME280;6016;41.928;25.556;2023-09-12T07:01:41;99280.19;;;21.75;48.37
11912;BME280;6016;41.928;25.556;2023-09-12T07:04:09;99346.78;;;22.45;47.44
11912;BME280;6016;41.928;25.556;2023-09-12T07:06:35;99351.31;;;22.58;47.69
11912;BME280;6016;41.928;25.556;2023-09-12T07:09:02;99160.56;;;21.79;46.55
11912;BME280;6016;41.928;25.556;2023-09-12T07:11:31;99314.56;;;23.23;45.98
11912;BME280;6016;41.928;25.556;2023-09-12T07:13:58;99343.75;;;24.09;43.27
11912;BME280;6016;41.928;25.556;2023-09-12T07:16:25;99284.19;;;23.67;43.03
11912;BME280;6016;41.928;25.556;2023-09-12T07:18:51;99322.53;;;24.13;43.68
11912;BME280;6016;41.928;25.556;2023-09-12T07:21:19;99246.34;;;23.62;42.65
11912;BME280;6016;41.928;25.556;2023-09-12T07:23:48;99372.06;;;24.37;43.70
11912;BME280;6016;41.928;25.556;2023-09-12T07:26:15;99351.22;;;24.82;42.65
11912;BME280;6016;41.928;25.556;2023-09-12T07:28:43;99330.53;;;25.37;40.27
11912;BME280;6016;41.928;25.556;2023-09-12T07:31:10;99277.69;;;25.29;40.72
11912;BME280;6016;41.928;25.556;2023-09-12T07:33:37;99295.28;;;25.20;40.87
11912;BME280;6016;41.928;25.556;2023-09-12T07:36:04;99346.59;;;25.32;41.45
11912;BME280;6016;41.928;25.556;2023-09-12T07:38:31;99352.06;;;25.13;41.54
11912;BME280;6016;41.928;25.556;2023-09-12T07:41:00;99351.31;;;25.06;41.15
11912;BME280;6016;41.928;25.556;2023-09-12T07:43:28;99275.25;;;24.66;41.35
11912;BME280;6016;41.928;25.556;2023-09-12T07:45:57;99350.69;;;25.22;40.66
11912;BME280;6016;41.928;25.556;2023-09-12T07:48:24;99342.84;;;25.33;40.89
11912;BME280;6016;41.928;25.556;2023-09-12T07:50:51;99347.31;;;25.39;41.01
11912;BME280;6016;41.928;25.556;2023-09-12T07:53:18;99270.75;;;24.79;40.14
11912;BME280;6016;41.928;25.556;2023-09-12T07:55:45;99347.53;;;25.25;40.74
11912;BME280;6016;41.928;25.556;2023-09-12T07:58:13;99233.88;;;24.42;41.17
11912;BME280;6016;41.928;25.556;2023-09-12T08:00:40;99345.47;;;25.09;40.87
11912;BME280;6016;41.928;25.556;2023-09-12T08:03:08;99341.47;;;24.99;40.43
11912;BME280;6016;41.928;25.556;2023-09-12T08:05:35;99341.91;;;24.96;41.60
11912;BME280;6016;41.928;25.556;2023-09-12T08:08:03;99295.03;;;24.60;40.28
11912;BME280;6016;41.928;25.556;2023-09-12T08:10:30;99342.59;;;24.92;40.91
11912;BME280;6016;41.928;25.556;2023-09-12T08:12:59;99305.59;;;24.62;41.34
11912;BME280;6016;41.928;25.556;2023-09-12T08:15:26;99335.66;;;24.84;41.93
11912;BME280;6016;41.928;25.556;2023-09-12T08:17:53;99295.03;;;24.60;41.61
11912;BME280;6016;41.928;25.556;2023-09-12T08:20:22;99314.97;;;24.78;42.16
11912;BME280;6016;41.928;25.556;2023-09-12T08:22:49;99330.75;;;24.93;40.93
11912;BME280;6016;41.928;25.556;2023-09-12T08:25:16;99326.53;;;24.97;41.56
11912;BME280;6016;41.928;25.556;2023-09-12T08:27:42;99330.41;;;25.01;41.76
11912;BME280;6016;41.928;25.556;2023-09-12T08:30:11;99282.44;;;24.72;41.62
11912;BME280;6016;41.928;25.556;2023-09-12T08:32:38;99325.97;;;25.07;41.49
11912;BME280;6016;41.928;25.556;2023-09-12T08:35:09;99201.63;;;24.16;40.92
11912;BME280;6016;41.928;25.556;2023-09-12T08:37:37;99145.38;;;24.01;41.39
11912;BME280;6016;41.928;25.556;2023-09-12T08:40:06;99265.50;;;24.84;41.35
11912;BME280;6016;41.928;25.556;2023-09-12T08:42:38;99285.97;;;25.04;40.64
11912;BME280;6016;41.928;25.556;2023-09-12T08:45:11;99278.53;;;24.99;40.93
11912;BME280;6016;41.928;25.556;2023-09-12T08:47:39;99198.72;;;24.49;40.93
11912;BME280;6016;41.928;25.556;2023-09-12T08:50:08;99142.56;;;24.15;40.93
11912;BME280;6016;41.928;25.556;2023-09-12T08:52:38;99326.63;;;25.33;40.20
11912;BME280;6016;41.928;25.556;2023-09-12T08:55:05;99301.88;;;25.36;40.65
11912;BME280;6016;41.928;25.556;2023-09-12T08:57:33;99304.22;;;25.44;40.82
11912;BME280;6016;41.928;25.556;2023-09-12T09:00:03;99232.91;;;24.97;39.88
11912;BME280;6016;41.928;25.556;2023-09-12T09:02:32;99107.63;;;24.08;40.81
11912;BME280;6016;41.928;25.556;2023-09-12T09:05:00;99229.75;;;25.12;40.96
11912;BME280;6016;41.928;25.556;2023-09-12T09:07:30;99262.53;;;25.40;40.67
11912;BME280;6016;41.928;25.556;2023-09-12T09:10:01;99310.53;;;25.68;41.09
11912;BME280;6016;41.928;25.556;2023-09-12T09:12:29;99303.00;;;25.70;40.80
11912;BME280;6016;41.928;25.556;2023-09-12T09:14:56;99299.47;;;25.70;40.73
11912;BME280;6016;41.928;25.556;2023-09-12T09:17:23;99302.16;;;25.70;41.21
11912;BME280;6016;41.928;25.556;2023-09-12T09:19:50;99298.06;;;25.67;41.51
11912;BME280;6016;41.928;25.556;2023-09-12T09:22:17;99229.31;;;25.27;41.00
11912;BME280;6016;41.928;25.556;2023-09-12T09:24:43;99240.94;;;25.40;40.71
11912;BME280;6016;41.928;25.556;2023-09-12T09:27:11;99156.41;;;24.92;41.42
11912;BME280;6016;41.928;25.556;2023-09-12T09:29:48;99289.25;;;25.84;41.86
11912;BME280;6016;41.928;25.556;2023-09-12T09:32:18;99288.41;;;25.83;41.62
11912;BME280;6016;41.928;25.556;2023-09-12T09:34:47;99246.59;;;25.62;41.32
11912;BME280;6016;41.928;25.556;2023-09-12T09:37:15;99245.09;;;25.66;41.39
11912;BME280;6016;41.928;25.556;2023-09-12T09:39:44;99275.47;;;25.97;41.49
11912;BME280;6016;41.928;25.556;2023-09-12T09:42:14;99226.88;;;25.74;42.55
11912;BME280;6016;41.928;25.556;2023-09-12T09:44:41;99275.44;;;26.09;41.44
11912;BME280;6016;41.928;25.556;2023-09-12T09:47:08;99219.47;;;25.81;41.60
11912;BME280;6016;41.928;25.556;2023-09-12T09:49:35;99279.59;;;26.24;41.48
11912;BME280;6016;41.928;25.556;2023-09-12T09:52:03;99220.25;;;25.93;40.21
11912;BME280;6016;41.928;25.556;2023-09-12T09:54:30;99274.28;;;26.29;40.42
11912;BME280;6016;41.928;25.556;2023-09-12T09:56:57;99265.78;;;26.37;40.73
11912;BME280;6016;41.928;25.556;2023-09-12T09:59:27;99262.47;;;26.47;40.62
11912;BME280;6016;41.928;25.556;2023-09-12T10:01:56;99263.47;;;26.58;39.95
11912;BME280;6016;41.928;25.556;2023-09-12T10:04:23;99267.94;;;26.64;37.45
11912;BME280;6016;41.928;25.556;2023-09-12T10:06:51;99242.13;;;26.45;39.11
11912;BME280;6016;41.928;25.556;2023-09-12T10:09:22;99260.97;;;26.68;40.10
11912;BME280;6016;41.928;25.556;2023-09-12T10:11:50;99261.06;;;26.74;38.86
11912;BME280;6016;41.928;25.556;2023-09-12T10:14:19;99258.09;;;26.75;39.76
11912;BME280;6016;41.928;25.556;2023-09-12T10:16:49;99179.03;;;26.27;39.00
11912;BME280;6016;41.928;25.556;2023-09-12T10:19:19;99230.78;;;26.60;37.16
11912;BME280;6016;41.928;25.556;2023-09-12T10:21:49;99195.94;;;26.34;38.64
11912;BME280;6016;41.928;25.556;2023-09-12T10:24:16;99250.91;;;26.81;39.00
11912;BME280;6016;41.928;25.556;2023-09-12T10:26:43;99258.91;;;26.88;39.02
11912;BME280;6016;41.928;25.556;2023-09-12T10:29:12;99260.31;;;26.90;38.52
11912;BME280;6016;41.928;25.556;2023-09-12T10:31:40;99244.88;;;26.91;38.57
11912;BME280;6016;41.928;25.556;2023-09-12T10:34:08;99220.19;;;26.87;37.06
11912;BME280;6016;41.928;25.556;2023-09-12T10:36:39;99151.53;;;26.47;36.03
11912;BME280;6016;41.928;25.556;2023-09-12T10:39:06;99243.41;;;27.00;36.57
11912;BME280;6016;41.928;25.556;2023-09-12T10:41:37;99234.78;;;27.03;37.24
11912;BME280;6016;41.928;25.556;2023-09-12T10:44:07;99162.13;;;26.66;37.44
11912;BME280;6016;41.928;25.556;2023-09-12T10:46:36;99232.50;;;27.12;38.35
11912;BME280;6016;41.928;25.556;2023-09-12T10:49:07;99231.59;;;27.06;37.40
11912;BME280;6016;41.928;25.556;2023-09-12T10:51:38;99205.00;;;27.03;36.90
11912;BME280;6016;41.928;25.556;2023-09-12T10:54:06;99214.13;;;27.14;37.82
11912;BME280;6016;41.928;25.556;2023-09-12T10:56:34;99142.84;;;26.79;36.98
11912;BME280;6016;41.928;25.556;2023-09-12T10:59:13;99216.38;;;27.39;37.92
11912;BME280;6016;41.928;25.556;2023-09-12T11:01:43;99160.03;;;27.02;37.44
11912;BME280;6016;41.928;25.556;2023-09-12T11:04:31;99090.22;;;26.70;36.83
11912;BME280;6016;41.928;25.556;2023-09-12T11:06:59;99207.00;;;27.47;37.68
11912;BME280;6016;41.928;25.556;2023-09-12T11:09:26;99206.78;;;27.49;37.41
11912;BME280;6016;41.928;25.556;2023-09-12T11:11:56;99207.47;;;27.56;37.55
11912;BME280;6016;41.928;25.556;2023-09-12T11:14:23;99151.50;;;27.28;37.21
11912;BME280;6016;41.928;25.556;2023-09-12T11:17:24;99136.59;;;27.30;35.64
11912;BME280;6016;41.928;25.556;2023-09-12T11:19:53;99155.38;;;27.54;36.90
11912;BME280;6016;41.928;25.556;2023-09-12T11:22:22;99148.66;;;27.57;36.38
11912;BME280;6016;41.928;25.556;2023-09-12T11:24:49;99160.06;;;27.59;35.63
11912;BME280;6016;41.928;25.556;2023-09-12T11:27:16;99087.59;;;27.09;36.83
11912;BME280;6016;41.928;25.556;2023-09-12T11:29:46;99189.94;;;27.86;37.03
11912;BME280;6016;41.928;25.556;2023-09-12T11:32:26;99202.44;;;27.87;36.79
11912;BME280;6016;41.928;25.556;2023-09-12T11:34:54;99188.81;;;27.82;37.35
11912;BME280;6016;41.928;25.556;2023-09-12T11:37:25;99173.31;;;27.77;36.33
11912;BME280;6016;41.928;25.556;2023-09-12T11:39:54;99140.78;;;27.77;36.52
11912;BME280;6016;41.928;25.556;2023-09-12T11:42:23;99140.91;;;27.88;36.98
11912;BME280;6016;41.928;25.556;2023-09-12T11:44:51;99168.56;;;28.12;36.07
11912;BME280;6016;41.928;25.556;2023-09-12T11:47:18;99151.03;;;28.20;35.33
11912;BME280;6016;41.928;25.556;2023-09-12T11:49:45;99187.88;;;28.43;36.77
11912;BME280;6016;41.928;25.556;2023-09-12T11:52:15;99082.63;;;27.90;35.32
11912;BME280;6016;41.928;25.556;2023-09-12T11:54:43;99164.59;;;28.47;35.50
11912;BME280;6016;41.928;25.556;2023-09-12T11:57:13;99164.13;;;28.56;35.79
11912;BME280;6016;41.928;25.556;2023-09-12T11:59:41;98936.31;;;27.18;35.94
11912;BME280;6016;41.928;25.556;2023-09-12T12:02:10;99159.41;;;28.73;36.39
11912;BME280;6016;41.928;25.556;2023-09-12T12:04:38;99106.47;;;28.43;35.23
11912;BME280;6016;41.928;25.556;2023-09-12T12:07:05;99142.66;;;28.82;35.00
11912;BME280;6016;41.928;25.556;2023-09-12T12:09:34;99146.84;;;28.95;34.80
11912;BME280;6016;41.928;25.556;2023-09-12T12:12:09;99152.88;;;29.02;35.73
11912;BME280;6016;41.928;25.556;2023-09-12T12:14:38;99145.28;;;29.04;34.56
11912;BME280;6016;41.928;25.556;2023-09-12T12:17:07;99097.72;;;28.63;35.87
11912;BME280;6016;41.928;25.556;2023-09-12T12:19:34;99059.66;;;28.58;36.01
11912;BME280;6016;41.928;25.556;2023-09-12T12:22:02;99132.41;;;28.94;34.68
11912;BME280;6016;41.928;25.556;2023-09-12T12:24:38;99134.41;;;29.04;34.84
11912;BME280;6016;41.928;25.556;2023-09-12T12:27:05;99135.44;;;28.98;34.49
11912;BME280;6016;41.928;25.556;2023-09-12T12:29:34;99112.84;;;28.87;34.54
11912;BME280;6016;41.928;25.556;2023-09-12T12:32:01;99107.09;;;28.83;35.49
11912;BME280;6016;41.928;25.556;2023-09-12T12:34:28;99126.50;;;28.97;35.14
11912;BME280;6016;41.928;25.556;2023-09-12T12:36:55;99126.75;;;29.01;34.92
11912;BME280;6016;41.928;25.556;2023-09-12T12:39:23;99121.38;;;29.06;35.73
11912;BME280;6016;41.928;25.556;2023-09-12T12:41:53;99119.50;;;29.12;34.79
11912;BME280;6016;41.928;25.556;2023-09-12T12:44:20;99076.44;;;28.83;34.82
11912;BME280;6016;41.928;25.556;2023-09-12T12:46:48;99119.53;;;29.17;34.99
11912;BME280;6016;41.928;25.556;2023-09-12T12:49:16;99113.19;;;29.01;34.83
11912;BME280;6016;41.928;25.556;2023-09-12T12:51:42;98811.00;;;27.28;34.65
11912;BME280;6016;41.928;25.556;2023-09-12T12:54:09;99116.88;;;29.22;34.62
11912;BME280;6016;41.928;25.556;2023-09-12T12:56:37;99112.22;;;29.17;34.24
11912;BME280;6016;41.928;25.556;2023-09-12T12:59:06;99057.91;;;28.79;35.28
11912;BME280;6016;41.928;25.556;2023-09-12T13:01:34;99078.97;;;29.00;35.50
11912;BME280;6016;41.928;25.556;2023-09-12T13:04:02;99106.22;;;29.15;35.09